createdAt,value
2022-10-26T01:47:31.061Z,100061.56
2022-10-26T01:50:02.292Z,100061.44
2022-10-26T01:52:30.262Z,100051.00
2022-10-26T01:55:02.959Z,100049.53
2022-10-26T01:57:34.558Z,100047.84
2022-10-26T02:00:07.570Z,100033.53
2022-10-26T02:21:18.576Z,100033.50
2022-10-26T02:26:35.764Z,100040.34
2022-10-26T02:32:00.188Z,100034.88
2022-10-26T02:34:31.493Z,100026.63
2022-10-26T02:37:03.384Z,100026.03
2022-10-26T02:39:34.900Z,100023.91
2022-10-26T02:42:05.933Z,100022.72
2022-10-26T02:44:38.549Z,100021.41
2022-10-26T02:47:06.515Z,100015.59
2022-10-26T03:08:54.782Z,100009.22
2022-10-26T03:11:22.731Z,100008.41
2022-10-26T03:13:50.840Z,100008.00
2022-10-26T03:16:19.785Z,100011.25
2022-10-26T03:18:47.535Z,100013.88
2022-10-26T03:21:15.714Z,100013.84
2022-10-26T03:23:43.526Z,100010.94
2022-10-26T03:26:12.991Z,100004.41
2022-10-26T03:28:41.438Z,100004.69
2022-10-26T03:31:09.657Z,100020.19
2022-10-26T03:36:11.421Z,100018.06
2022-10-26T03:38:39.407Z,100011.94
2022-10-26T04:01:41.150Z,100055.81
2022-10-26T04:04:09.429Z,100049.75
2022-10-26T04:06:37.633Z,100061.16
2022-10-26T05:31:27.618Z,100025.97
2022-10-26T05:33:55.439Z,100030.53
2022-10-26T05:36:23.539Z,100018.66
2022-10-26T05:38:51.472Z,100017.16
2022-10-26T05:41:19.544Z,100026.50
2022-10-26T05:43:48.543Z,100026.78
2022-10-26T05:46:18.456Z,100019.09
2022-10-26T05:48:48.120Z,100028.78
2022-10-26T05:51:16.453Z,100036.13
2022-10-26T05:53:44.726Z,100032.47
2022-10-26T05:56:20.090Z,100029.50
2022-10-26T05:58:50.122Z,100037.22
2022-10-26T06:01:27.929Z,100033.50
2022-10-26T06:04:14.211Z,100036.75
2022-10-26T06:06:47.369Z,100041.50
2022-10-26T06:09:16.380Z,100047.75
2022-10-26T06:11:44.907Z,100045.97
2022-10-26T06:14:13.927Z,100050.03
2022-10-26T06:16:53.532Z,100053.56
2022-10-26T06:19:33.585Z,100063.41
2022-10-26T06:22:14.614Z,100067.94
2022-10-26T06:24:50.391Z,100075.75
2022-10-26T06:27:29.130Z,100084.31
2022-10-26T06:30:02.745Z,100087.34
2022-10-26T06:32:31.769Z,100088.72
2022-10-26T06:35:15.521Z,100078.63
2022-10-26T06:37:45.621Z,100087.59
2022-10-26T06:40:15.916Z,100085.47
2022-10-26T06:42:45.198Z,100088.03
2022-10-26T06:47:50.761Z,100099.13
2022-10-26T06:50:31.009Z,100107.16
2022-10-26T06:53:07.072Z,100108.59
2022-10-26T06:55:43.120Z,100115.72
2022-10-26T06:58:15.758Z,100108.34
2022-10-26T07:00:45.690Z,100104.09
2022-10-26T07:03:13.733Z,100118.44
2022-10-26T07:05:44.986Z,100123.41
2022-10-26T07:08:13.128Z,100128.94
2022-10-26T07:10:42.303Z,100124.97
2022-10-26T07:13:11.997Z,100128.72
2022-10-26T07:15:41.097Z,100132.13
2022-10-26T07:18:09.383Z,100136.91
2022-10-26T07:20:39.273Z,100132.03
2022-10-26T07:23:11.317Z,100133.09
2022-10-26T07:25:40.490Z,100142.56
2022-10-26T07:28:10.501Z,100150.06
2022-10-26T07:30:39.878Z,100154.28
2022-10-26T07:33:10.939Z,100154.22
2022-10-26T07:35:39.527Z,100159.41
2022-10-26T07:38:08.988Z,100163.03
2022-10-26T07:40:37.846Z,100163.50
2022-10-26T07:43:06.063Z,100160.22
2022-10-26T07:45:34.085Z,100173.38
2022-10-26T07:48:02.135Z,100179.44
2022-10-26T07:50:30.178Z,100174.06
2022-10-26T07:52:59.638Z,100173.28
2022-10-26T07:55:29.153Z,100186.25
2022-10-26T07:57:57.564Z,100180.81
2022-10-26T08:00:26.195Z,100190.44
2022-10-26T08:02:55.295Z,100174.84
2022-10-26T08:05:23.471Z,100167.72
2022-10-26T08:07:52.022Z,100170.53
2022-10-26T08:10:20.394Z,100180.84
2022-10-26T08:12:49.950Z,100191.25
2022-10-26T08:15:18.035Z,100190.63
2022-10-26T08:17:46.930Z,100192.84
2022-10-26T08:20:15.108Z,100187.22
2022-10-26T08:22:43.483Z,100196.34
2022-10-26T08:25:11.296Z,100192.47
2022-10-26T08:27:39.587Z,100198.91
2022-10-26T08:30:09.864Z,100202.16
2022-10-26T08:32:37.971Z,100193.66
2022-10-26T08:35:06.561Z,100185.31
2022-10-26T08:37:34.650Z,100190.75
2022-10-26T08:40:03.458Z,100187.06
2022-10-26T08:42:35.681Z,100189.47
2022-10-26T08:45:06.873Z,100197.94
2022-10-26T08:47:44.881Z,100206.25
2022-10-26T08:50:19.459Z,100208.69
2022-10-26T08:52:51.856Z,100202.53
2022-10-26T08:55:34.317Z,100209.72
2022-10-26T08:58:03.130Z,100205.44
2022-10-26T09:00:32.054Z,100204.69
2022-10-26T09:03:01.312Z,100203.50
2022-10-26T09:05:39.826Z,100208.59
2022-10-26T09:08:17.831Z,100218.03
2022-10-26T09:10:58.801Z,100226.38
2022-10-26T09:13:43.495Z,100214.41
2022-10-26T09:16:23.866Z,100214.09
2022-10-26T09:19:03.353Z,100215.72
2022-10-26T09:21:42.147Z,100209.09
2022-10-26T09:24:15.523Z,100224.63
2022-10-26T09:26:55.734Z,100228.34
2022-10-26T09:29:28.963Z,100228.47
2022-10-26T09:32:00.340Z,100234.19
2022-10-26T09:34:37.551Z,100240.31
2022-10-26T09:37:15.804Z,100245.41
2022-10-26T09:39:48.033Z,100247.13
2022-10-26T09:42:21.904Z,100245.28
2022-10-26T09:44:56.439Z,100246.03
2022-10-26T09:47:35.311Z,100250.50
2022-10-26T09:50:16.463Z,100257.56
2022-10-26T09:52:44.806Z,100276.91
2022-10-26T09:55:14.143Z,100265.75
2022-10-26T09:57:46.472Z,100265.84
2022-10-26T10:00:16.938Z,100264.72
2022-10-26T10:02:48.843Z,100283.50
2022-10-26T10:08:23.963Z,100278.53
2022-10-26T10:10:58.328Z,100278.19
2022-10-26T10:13:28.570Z,100279.69
2022-10-26T10:16:03.504Z,100271.53
2022-10-26T10:18:32.365Z,100285.28
2022-10-26T10:21:01.756Z,100286.94
2022-10-26T10:23:32.911Z,100289.97
2022-10-26T10:26:07.339Z,100293.75
2022-10-26T10:28:35.930Z,100302.72
2022-10-26T10:31:06.372Z,100296.09
2022-10-26T10:33:40.308Z,100302.28
2022-10-26T10:36:17.506Z,100303.88
2022-10-26T10:38:48.216Z,100306.72
2022-10-26T10:41:20.644Z,100305.78
2022-10-26T10:43:52.048Z,100316.50
2022-10-26T10:46:24.018Z,100321.78
2022-10-26T10:48:56.954Z,100318.78
2022-10-26T10:51:27.597Z,100333.91
2022-10-26T10:53:56.910Z,100325.69
2022-10-26T10:56:43.005Z,100330.50
2022-10-26T10:59:36.037Z,100333.47
2022-10-26T11:02:32.502Z,100336.31
2022-10-26T11:05:20.948Z,100319.47
2022-10-26T11:07:56.274Z,100329.94
2022-10-26T11:10:29.160Z,100336.31
2022-10-26T11:13:04.588Z,100334.84
2022-10-26T11:15:36.225Z,100334.13
2022-10-26T11:18:13.331Z,100338.84
2022-10-26T11:20:48.564Z,100331.75
2022-10-26T11:23:24.039Z,100331.03
2022-10-26T11:25:57.081Z,100335.47
2022-10-26T11:28:40.878Z,100335.66
2022-10-26T11:31:14.138Z,100336.06
2022-10-26T11:33:43.924Z,100342.59
2022-10-26T11:36:19.736Z,100338.66
2022-10-26T11:39:03.940Z,100342.41
2022-10-26T11:41:41.495Z,100350.56
2022-10-26T11:44:15.172Z,100354.16
2022-10-26T11:46:47.129Z,100353.09
2022-10-26T11:49:22.062Z,100344.53
2022-10-26T11:51:56.968Z,100352.31
2022-10-26T11:54:32.063Z,100355.34
2022-10-26T11:57:01.469Z,100351.97
2022-10-26T11:59:33.495Z,100348.69
2022-10-26T12:02:06.314Z,100349.06
2022-10-26T12:04:38.888Z,100340.66
2022-10-26T12:07:14.748Z,100350.53
2022-10-26T12:09:45.826Z,100353.16
2022-10-26T12:12:23.308Z,100358.31
2022-10-26T12:14:59.475Z,100353.22
2022-10-26T12:17:33.315Z,100359.06
2022-10-26T12:20:08.664Z,100350.78
2022-10-26T12:22:40.874Z,100346.59
2022-10-26T12:25:21.703Z,100352.63
2022-10-26T12:27:55.539Z,100345.19
2022-10-26T12:30:31.060Z,100347.19
2022-10-26T12:33:00.654Z,100355.97
2022-10-26T12:35:37.702Z,100363.06
2022-10-26T12:38:50.916Z,100361.31
2022-10-26T12:41:25.711Z,100360.84
2022-10-26T12:43:58.719Z,100353.13
2022-10-26T12:46:45.585Z,100355.34
2022-10-26T12:49:59.444Z,100355.56
2022-10-26T12:53:04.402Z,100357.00
2022-10-26T12:56:06.480Z,100350.81
2022-10-26T12:59:10.466Z,100356.44
2022-10-26T13:02:29.077Z,100362.06
2022-10-26T13:05:29.311Z,100365.72
2022-10-26T13:08:04.444Z,100365.06
2022-10-26T13:10:32.607Z,100377.22
2022-10-26T13:13:03.145Z,100374.09
2022-10-26T13:15:39.970Z,100373.78
2022-10-26T13:18:14.862Z,100379.75
2022-10-26T13:20:54.994Z,100380.97
2022-10-26T13:23:27.183Z,100378.03
2022-10-26T13:26:12.077Z,100378.13
2022-10-26T13:28:52.357Z,100378.88
2022-10-26T13:31:54.618Z,100385.13
2022-10-26T13:34:25.479Z,100380.06
2022-10-26T13:37:00.626Z,100381.41
2022-10-26T13:39:40.295Z,100388.13
2022-10-26T13:42:17.041Z,100392.34
2022-10-26T13:44:51.794Z,100386.72
2022-10-26T13:47:28.268Z,100405.22
2022-10-26T13:50:01.094Z,100395.66
2022-10-26T13:52:34.249Z,100394.91
2022-10-26T13:55:04.887Z,100390.28
2022-10-26T13:57:37.460Z,100384.44
2022-10-26T14:00:17.167Z,100392.78
2022-10-26T14:02:51.203Z,100391.41
2022-10-26T14:05:20.381Z,100398.28
2022-10-26T14:07:54.255Z,100410.94
2022-10-26T14:10:29.040Z,100412.00
2022-10-26T14:12:57.726Z,100416.25
2022-10-26T14:15:28.244Z,100424.31
2022-10-26T14:17:59.882Z,100424.78
2022-10-26T14:20:30.118Z,100430.44
2022-10-26T14:22:58.454Z,100429.72
2022-10-26T14:25:42.284Z,100428.09
2022-10-26T14:28:26.839Z,100435.72
2022-10-26T14:30:57.385Z,100428.63
2022-10-26T14:33:29.561Z,100432.78
2022-10-26T14:35:58.422Z,100432.53
2022-10-26T14:38:30.795Z,100429.88
2022-10-26T14:41:00.182Z,100432.72
2022-10-26T14:43:28.831Z,100425.94
2022-10-26T14:45:57.564Z,100435.00
2022-10-26T14:48:31.243Z,100436.22
2022-10-26T14:51:13.180Z,100443.19
2022-10-26T14:53:48.567Z,100441.34
2022-10-26T14:56:24.636Z,100445.88
2022-10-26T14:58:53.988Z,100438.88
2022-10-26T15:01:36.383Z,100445.72
2022-10-26T15:04:08.690Z,100443.66
2022-10-26T15:06:43.527Z,100440.00
2022-10-26T15:09:31.867Z,100449.16
2022-10-26T15:12:03.247Z,100446.94
2022-10-26T15:14:31.642Z,100449.44
2022-10-26T15:17:00.637Z,100451.78
2022-10-26T15:19:30.798Z,100448.63
2022-10-26T15:21:59.038Z,100458.09
2022-10-26T15:24:34.443Z,100460.00
2022-10-26T15:27:13.363Z,100453.97
2022-10-26T15:29:43.934Z,100451.19
2022-10-26T15:32:35.995Z,100456.50
2022-10-26T15:35:16.775Z,100456.75
2022-10-26T15:37:45.970Z,100451.66
2022-10-26T15:40:14.705Z,100455.38
2022-10-26T15:42:45.470Z,100462.00
2022-10-26T15:45:18.768Z,100456.31
2022-10-26T15:47:47.349Z,100470.53
2022-10-26T15:50:18.384Z,100469.41
2022-10-26T15:52:49.229Z,100472.38
2022-10-26T15:55:18.318Z,100479.09
2022-10-26T15:57:47.637Z,100481.94
2022-10-26T16:00:18.930Z,100480.75
2022-10-26T16:02:47.537Z,100474.88
2022-10-26T16:05:17.451Z,100484.38
2022-10-26T16:07:48.528Z,100488.38
2022-10-26T16:10:21.677Z,100493.03
2022-10-26T16:12:50.497Z,100495.44
2022-10-26T16:15:20.628Z,100506.59
2022-10-26T16:17:49.216Z,100504.31
2022-10-26T16:20:22.913Z,100507.09
2022-10-26T16:22:51.648Z,100503.13
2022-10-26T16:25:21.564Z,100503.97
2022-10-26T16:27:50.620Z,100511.97
2022-10-26T16:30:23.734Z,100511.75
2022-10-26T16:32:53.914Z,100521.06
2022-10-26T16:35:23.477Z,100524.66
2022-10-26T16:37:51.341Z,100521.09
2022-10-26T16:40:19.465Z,100526.06
2022-10-26T16:42:47.358Z,100528.41
2022-10-26T16:45:16.169Z,100521.75
2022-10-26T16:47:44.672Z,100521.72
2022-10-26T16:50:14.597Z,100532.50
2022-10-26T16:52:44.477Z,100536.38
2022-10-26T16:55:12.259Z,100530.56
2022-10-26T16:57:40.231Z,100534.81
2022-10-26T17:00:08.996Z,100542.09
2022-10-26T17:02:37.492Z,100548.31
2022-10-26T17:05:07.574Z,100546.66
2022-10-26T17:07:36.338Z,100554.25
2022-10-26T17:10:06.732Z,100552.03
2022-10-26T17:12:35.172Z,100555.59
2022-10-26T17:15:03.151Z,100564.31
2022-10-26T17:17:31.874Z,100573.28
2022-10-26T17:22:49.072Z,100578.34
2022-10-26T17:25:18.874Z,100573.31
2022-10-26T17:27:47.615Z,100582.06
2022-10-26T17:30:16.510Z,100585.22
2022-10-26T17:32:45.418Z,100588.09
2022-10-26T17:35:13.464Z,100595.72
2022-10-26T17:37:42.050Z,100596.41
2022-10-26T17:40:10.931Z,100604.00
2022-10-26T17:42:41.369Z,100611.13
2022-10-26T17:45:10.390Z,100612.00
2022-10-26T17:47:38.508Z,100623.34
2022-10-26T17:50:07.888Z,100629.19
2022-10-26T17:52:36.589Z,100627.13
2022-10-26T17:55:06.766Z,100634.41
2022-10-26T17:57:34.838Z,100645.88
2022-10-26T18:00:06.719Z,100647.78
2022-10-26T18:02:40.389Z,100651.13
2022-10-26T18:05:09.402Z,100647.78
2022-10-26T18:07:37.915Z,100649.09
2022-10-26T18:10:13.964Z,100657.13
2022-10-26T18:12:54.927Z,100666.06
2022-10-26T18:21:16.079Z,100667.44
2022-10-26T19:09:24.991Z,100720.66
2022-10-26T19:11:53.784Z,100725.56
2022-10-26T19:14:22.130Z,100724.25
2022-10-26T19:16:51.825Z,100722.81
2022-10-26T19:19:21.050Z,100723.97
2022-10-26T19:21:51.081Z,100724.91
2022-10-26T19:24:20.466Z,100724.19
2022-10-26T19:26:51.755Z,100724.19
2022-10-26T19:35:11.890Z,100723.47
2022-10-26T19:37:40.318Z,100715.00
2022-10-26T19:48:58.315Z,100738.78
2022-10-26T19:51:28.668Z,100737.84
2022-10-26T20:00:02.326Z,100748.00
2022-10-26T20:02:40.700Z,100749.19
2022-10-26T20:05:10.977Z,100748.81
2022-10-26T20:07:38.795Z,100753.47
2022-10-26T20:13:03.306Z,100757.28
2022-10-26T20:15:31.902Z,100762.53
2022-10-26T20:18:00.058Z,100770.16
2022-10-26T20:29:38.088Z,100778.03
2022-10-26T20:32:07.192Z,100773.63
2022-10-26T20:34:35.788Z,100780.03
2022-10-26T20:37:04.168Z,100783.88
2022-10-26T20:42:35.381Z,100778.72
2022-10-26T20:45:09.968Z,100785.84
2022-10-26T20:47:38.566Z,100781.75
2022-10-26T20:50:08.201Z,100785.47
2022-10-26T20:52:43.537Z,100780.84
2022-10-26T20:55:17.958Z,100778.75
2022-10-26T20:57:55.053Z,100785.16
2022-10-26T21:00:25.276Z,100783.13
2022-10-26T21:02:53.286Z,100779.38
2022-10-26T21:05:22.572Z,100782.41
2022-10-26T21:07:50.768Z,100779.66
2022-10-26T21:10:19.171Z,100789.09
2022-10-26T21:12:47.743Z,100781.78
2022-10-26T21:15:15.989Z,100780.31
2022-10-26T21:17:45.948Z,100788.06
2022-10-26T21:20:14.002Z,100793.38
2022-10-26T21:22:42.985Z,100793.94
2022-10-26T21:25:11.196Z,100783.69
2022-10-26T21:27:39.931Z,100785.75
2022-10-26T21:30:09.485Z,100788.59
2022-10-26T21:32:37.932Z,100785.16
2022-10-26T21:35:08.243Z,100782.78
2022-10-26T21:37:36.117Z,100781.25
2022-10-26T21:40:04.419Z,100780.53
2022-10-26T21:42:32.282Z,100789.72
2022-10-26T21:45:00.672Z,100788.03
2022-10-26T21:47:28.558Z,100795.22
2022-10-26T21:49:57.110Z,100801.91
2022-10-26T21:52:26.730Z,100813.47
2022-10-26T21:54:55.213Z,100811.91
2022-10-26T21:57:24.337Z,100811.09
2022-10-26T21:59:52.341Z,100823.66
2022-10-26T22:02:20.415Z,100819.56
2022-10-26T22:04:48.403Z,100823.84
2022-10-26T22:07:17.191Z,100821.53
2022-10-26T22:10:00.393Z,100820.53
2022-10-26T22:12:36.269Z,100825.00
2022-10-26T22:15:04.371Z,100826.56
2022-10-26T22:17:32.221Z,100824.50
2022-10-26T22:20:00.598Z,100825.06
2022-10-26T22:22:28.844Z,100820.16
2022-10-26T22:24:58.349Z,100827.56
2022-10-26T22:27:26.663Z,100822.84
2022-10-26T22:29:54.828Z,100816.03
2022-10-26T22:32:23.082Z,100820.03
2022-10-26T22:35:04.745Z,100813.28
2022-10-26T22:37:38.700Z,100813.53
2022-10-26T22:40:08.952Z,100812.44
2022-10-26T22:42:36.851Z,100816.13
2022-10-26T22:45:05.241Z,100826.41
2022-10-26T22:47:33.392Z,100821.59
2022-10-26T22:50:01.726Z,100813.19
2022-10-26T22:52:29.824Z,100815.09
2022-10-26T22:54:58.165Z,100818.59
2022-10-26T22:57:28.028Z,100820.31
2022-10-26T22:59:56.197Z,100813.19
2022-10-26T23:02:24.474Z,100824.22
2022-10-26T23:04:52.752Z,100827.03
2022-10-26T23:07:20.708Z,100827.22
2022-10-26T23:09:49.038Z,100824.69
2022-10-26T23:12:17.311Z,100831.13
2022-10-26T23:30:00.789Z,100826.03
2022-10-26T23:32:28.715Z,100824.63
2022-10-26T23:34:56.787Z,100825.09
2022-10-26T23:37:24.737Z,100824.72
2022-10-26T23:39:52.873Z,100833.09
2022-10-26T23:42:20.827Z,100830.03
2022-10-26T23:44:49.262Z,100841.19
2022-10-26T23:47:18.643Z,100846.75
2022-10-26T23:49:49.066Z,100845.56
2022-10-26T23:52:17.267Z,100839.88
2022-10-26T23:54:45.652Z,100838.41
2022-10-26T23:57:13.678Z,100841.84
2022-10-26T23:59:41.614Z,100847.78
